Time;durP1;ratioP1;P1;durP2;ratioP2;P2;SDS_P1;SDS_P2;PMS_P1;PMS_P2;Temp;Humidity;BMP_temperature;BMP_pressure;BME280_temperature;BME280_humidity;BME280_pressure;Samples;Min_cycle;Max_cycle;Signal;HPM_P1;HPM_P2
2023/01/10 00:00:50;;;;;;;53.45;30.88;;;;;;;;;;4936279;29;20038;-68
2023/01/10 00:03:16;;;;;;;56.22;33.90;;;;;;;;;;4936577;29;20119;-68
2023/01/10 00:05:42;;;;;;;61.67;36.20;;;;;;;;;;4935756;29;20023;-69
2023/01/10 00:08:09;;;;;;;49.42;30.15;;;;;;;;;;4925183;29;20123;-67
2023/01/10 00:10:35;;;;;;;52.33;33.08;;;;;;;;;;4935814;29;20445;-68
2023/01/10 00:15:45;;;;;;;50.97;31.83;;;;;;;;;;4924732;29;20387;-68
2023/01/10 00:18:11;;;;;;;62.72;37.17;;;;;;;;;;4915663;29;20031;-68
2023/01/10 00:20:37;;;;;;;60.47;34.45;;;;;;;;;;4916695;29;20043;-68
2023/01/10 00:23:03;;;;;;;79.15;37.70;;;;;;;;;;4922751;29;20031;-68
2023/01/10 00:25:29;;;;;;;67.22;35.78;;;;;;;;;;4934353;29;20386;-68
2023/01/10 00:30:39;;;;;;;64.28;36.95;;;;;;;;;;4921852;29;20031;-68
2023/01/10 00:33:06;;;;;;;53.67;31.42;;;;;;;;;;4935489;29;20070;-68
2023/01/10 00:35:32;;;;;;;47.63;28.35;;;;;;;;;;4932612;29;20116;-69
2023/01/10 00:38:04;;;;;;;44.40;26.42;;;;;;;;;;4935307;29;20031;-68
2023/01/10 00:40:31;;;;;;;46.15;27.55;;;;;;;;;;4934208;29;20051;-67
2023/01/10 00:45:44;;;;;;;37.10;22.50;;;;;;;;;;4928289;29;20407;-69
2023/01/10 00:48:10;;;;;;;36.00;22.38;;;;;;;;;;4911226;29;20027;-68
2023/01/10 00:50:36;;;;;;;39.17;23.85;;;;;;;;;;4928111;29;20508;-68
2023/01/10 00:53:02;;;;;;;40.03;23.45;;;;;;;;;;4936034;29;20044;-69
2023/01/10 00:55:28;;;;;;;35.65;22.00;;;;;;;;;;4935759;29;20508;-68
2023/01/10 00:57:53;;;;;;;36.28;22.58;;;;;;;;;;4935777;29;20162;-69
2023/01/10 01:00:19;;;;;;;53.22;31.05;;;;;;;;;;4935655;29;20040;-68
2023/01/10 01:02:44;;;;;;;55.58;30.60;;;;;;;;;;4935811;29;20028;-68
2023/01/10 01:05:10;;;;;;;61.13;34.97;;;;;;;;;;4935585;29;20040;-68
2023/01/10 01:07:36;;;;;;;55.78;33.25;;;;;;;;;;4935777;29;20110;-68
2023/01/10 01:12:46;;;;;;;51.65;27.88;;;;;;;;;;4920636;29;20573;-68
2023/01/10 01:15:12;;;;;;;52.60;29.27;;;;;;;;;;4935363;29;20055;-68
2023/01/10 01:17:38;;;;;;;45.55;28.25;;;;;;;;;;4932490;29;20134;-68
2023/01/10 01:20:04;;;;;;;46.42;27.92;;;;;;;;;;4935588;29;20122;-68
2023/01/10 01:22:30;;;;;;;50.10;26.55;;;;;;;;;;4935582;29;20051;-68
2023/01/10 01:24:55;;;;;;;42.92;25.23;;;;;;;;;;4935561;29;20033;-68
2023/01/10 01:27:21;;;;;;;39.15;23.65;;;;;;;;;;4935241;29;20616;-68
2023/01/10 01:29:47;;;;;;;43.38;24.13;;;;;;;;;;4932511;29;20088;-68
2023/01/10 01:32:12;;;;;;;37.03;22.98;;;;;;;;;;4931867;29;20086;-68
2023/01/10 01:34:38;;;;;;;38.80;23.55;;;;;;;;;;4935149;29;20031;-68
2023/01/10 01:37:03;;;;;;;36.95;22.52;;;;;;;;;;4935414;29;20526;-68
2023/01/10 01:39:29;;;;;;;39.80;22.52;;;;;;;;;;4935298;29;20498;-68
2023/01/10 01:41:59;;;;;;;38.55;23.50;;;;;;;;;;4935129;29;20045;-69
2023/01/10 01:44:32;;;;;;;38.58;24.13;;;;;;;;;;4934757;29;20549;-69
2023/01/10 01:47:03;;;;;;;33.85;20.58;;;;;;;;;;4935380;29;20032;-69
2023/01/10 01:49:31;;;;;;;33.50;19.77;;;;;;;;;;4935152;29;20066;-68
2023/01/10 01:52:25;;;;;;;35.08;20.77;;;;;;;;;;4935238;29;20063;-68
2023/01/10 01:54:56;;;;;;;40.25;20.75;;;;;;;;;;4927478;29;20143;-68
2023/01/10 01:57:25;;;;;;;37.90;21.60;;;;;;;;;;4934469;29;20043;-68
2023/01/10 01:59:53;;;;;;;39.38;23.30;;;;;;;;;;4934567;29;20036;-68
2023/01/10 02:02:24;;;;;;;37.45;22.70;;;;;;;;;;4934607;29;20028;-69
2023/01/10 02:05:07;;;;;;;40.15;23.25;;;;;;;;;;4933929;29;20052;-68
2023/01/10 02:07:36;;;;;;;37.28;22.60;;;;;;;;;;4934588;29;20074;-68
2023/01/10 02:10:07;;;;;;;39.45;23.77;;;;;;;;;;4910096;29;20075;-68
2023/01/10 02:12:33;;;;;;;42.15;25.77;;;;;;;;;;4915582;29;20175;-68
2023/01/10 02:15:00;;;;;;;42.63;26.63;;;;;;;;;;4914917;29;20028;-68
2023/01/10 02:17:25;;;;;;;45.30;27.55;;;;;;;;;;4915457;29;20032;-68
2023/01/10 02:19:58;;;;;;;49.05;28.17;;;;;;;;;;4915750;29;20478;-68
2023/01/10 02:23:00;;;;;;;48.22;28.02;;;;;;;;;;4915432;29;20490;-69
2023/01/10 02:26:05;;;;;;;43.60;26.23;;;;;;;;;;4914853;29;20044;-69
2023/01/10 02:28:40;;;;;;;;;;;;;;;;;;4916149;29;20032;-69
2023/01/10 02:31:36;;;;;;;40.65;23.75;;;;;;;;;;4915332;29;20010;-69
2023/01/10 02:34:17;;;;;;;43.75;25.15;;;;;;;;;;4915255;29;20038;-69
2023/01/10 02:36:45;;;;;;;41.40;25.25;;;;;;;;;;4915104;29;20044;-69
2023/01/10 02:39:51;;;;;;;41.13;24.45;;;;;;;;;;4915812;29;20081;-69
2023/01/10 02:42:47;;;;;;;39.80;23.23;;;;;;;;;;4909895;29;20055;-69
2023/01/10 02:45:32;;;;;;;42.08;25.05;;;;;;;;;;4914839;29;20168;-69
2023/01/10 02:47:59;;;;;;;44.90;26.10;;;;;;;;;;4915247;29;20398;-69
2023/01/10 02:50:35;;;;;;;42.40;26.42;;;;;;;;;;4915100;29;20060;-69
2023/01/10 02:53:09;;;;;;;39.67;24.00;;;;;;;;;;4914963;29;20095;-69
2023/01/10 02:55:50;;;;;;;39.03;23.90;;;;;;;;;;4914802;29;20123;-68
2023/01/10 02:58:47;;;;;;;42.97;24.48;;;;;;;;;;4918979;29;20124;-68
2023/01/10 03:01:20;;;;;;;41.33;23.63;;;;;;;;;;4918592;29;20040;-68
2023/01/10 03:04:15;;;;;;;38.95;23.10;;;;;;;;;;4918551;29;20048;-69
2023/01/10 03:06:50;;;;;;;35.72;20.10;;;;;;;;;;4894736;29;20048;-69
2023/01/10 03:09:28;;;;;;;24.08;15.38;;;;;;;;;;4908364;29;20131;-70
2023/01/10 03:12:12;;;;;;;32.92;17.92;;;;;;;;;;4924426;29;20103;-68
2023/01/10 03:14:39;;;;;;;29.33;17.63;;;;;;;;;;4910192;29;20044;-68
2023/01/10 03:17:09;;;;;;;28.42;16.00;;;;;;;;;;4918178;29;20060;-69
2023/01/10 03:19:42;;;;;;;30.95;17.92;;;;;;;;;;4916441;29;20047;-68
2023/01/10 03:22:10;;;;;;;30.17;16.10;;;;;;;;;;4915567;29;20048;-68
2023/01/10 03:24:40;;;;;;;26.70;16.75;;;;;;;;;;4908399;29;20036;-68
2023/01/10 03:27:33;;;;;;;27.85;17.10;;;;;;;;;;4909605;29;20120;-68
2023/01/10 03:30:26;;;;;;;24.30;15.82;;;;;;;;;;4908993;29;20118;-69
2023/01/10 03:32:54;;;;;;;27.02;16.52;;;;;;;;;;4906391;29;20044;-69
2023/01/10 03:35:45;;;;;;;24.77;15.57;;;;;;;;;;4905123;29;20039;-68
2023/01/10 03:38:23;;;;;;;31.67;17.88;;;;;;;;;;4894717;29;20073;-69
2023/01/10 03:41:00;;;;;;;31.30;17.33;;;;;;;;;;4908283;29;20516;-69
2023/01/10 03:46:36;;;;;;;24.48;15.07;;;;;;;;;;4909761;29;20036;-69
2023/01/10 03:49:04;;;;;;;29.20;16.90;;;;;;;;;;4906637;29;20139;-68
2023/01/10 03:51:31;;;;;;;28.40;17.15;;;;;;;;;;4909157;29;20633;-69
2023/01/10 03:54:01;;;;;;;28.73;17.15;;;;;;;;;;4905307;29;20083;-69
2023/01/10 03:56:26;;;;;;;30.10;17.73;;;;;;;;;;4902904;29;20027;-69
2023/01/10 03:58:52;;;;;;;27.42;17.83;;;;;;;;;;4906506;29;20032;-69
2023/01/10 04:01:18;;;;;;;31.00;18.00;;;;;;;;;;4887133;29;20040;-68
2023/01/10 04:03:43;;;;;;;28.65;17.88;;;;;;;;;;4907161;29;20062;-68
2023/01/10 04:06:09;;;;;;;28.98;17.95;;;;;;;;;;4889837;29;20028;-68
2023/01/10 04:08:35;;;;;;;31.63;17.10;;;;;;;;;;4909353;29;20042;-68
2023/01/10 04:11:00;;;;;;;33.17;17.77;;;;;;;;;;4908066;29;20490;-69
2023/01/10 04:13:26;;;;;;;29.40;16.55;;;;;;;;;;4904881;29;20040;-69
2023/01/10 04:15:52;;;;;;;27.55;16.48;;;;;;;;;;4916070;29;20024;-69
2023/01/10 04:18:18;;;;;;;25.55;15.57;;;;;;;;;;4906406;29;20035;-69
2023/01/10 04:20:44;;;;;;;25.58;15.63;;;;;;;;;;4899973;29;20031;-69
2023/01/10 04:23:09;;;;;;;27.40;16.27;;;;;;;;;;4917031;29;20289;-69
2023/01/10 04:25:35;;;;;;;25.75;15.23;;;;;;;;;;4915476;29;20382;-69
2023/01/10 04:28:01;;;;;;;29.80;15.75;;;;;;;;;;4916277;29;20038;-69
2023/01/10 04:30:27;;;;;;;34.83;16.90;;;;;;;;;;4915650;29;20034;-69
2023/01/10 04:32:53;;;;;;;25.58;15.68;;;;;;;;;;4899223;29;20044;-69
2023/01/10 04:35:19;;;;;;;30.58;15.07;;;;;;;;;;4891975;29;20030;-69
2023/01/10 04:37:44;;;;;;;24.20;14.40;;;;;;;;;;4916546;29;20032;-70
2023/01/10 04:40:10;;;;;;;32.10;15.40;;;;;;;;;;4916725;29;20039;-69
2023/01/10 04:42:36;;;;;;;28.42;14.68;;;;;;;;;;4916736;29;20569;-69
2023/01/10 04:45:02;;;;;;;28.42;15.15;;;;;;;;;;4929849;29;20031;-69
2023/01/10 04:47:28;;;;;;;27.50;15.27;;;;;;;;;;4917619;29;20402;-69
2023/01/10 04:49:53;;;;;;;33.85;18.30;;;;;;;;;;4916548;29;20024;-69
2023/01/10 04:52:19;;;;;;;27.30;15.63;;;;;;;;;;4916450;29;20036;-69
2023/01/10 04:54:44;;;;;;;30.17;16.65;;;;;;;;;;4915769;29;20028;-70
2023/01/10 04:57:10;;;;;;;24.65;14.50;;;;;;;;;;4916406;29;20091;-69
2023/01/10 04:59:36;;;;;;;32.60;16.15;;;;;;;;;;4916533;29;20100;-69
2023/01/10 05:02:01;;;;;;;25.55;15.40;;;;;;;;;;4914902;29;20405;-69
2023/01/10 05:04:27;;;;;;;24.63;15.35;;;;;;;;;;4916510;29;20443;-69
2023/01/10 05:06:53;;;;;;;25.10;14.68;;;;;;;;;;4891489;29;20043;-69
2023/01/10 05:09:19;;;;;;;26.48;15.65;;;;;;;;;;4899396;29;20510;-69
2023/01/10 05:11:44;;;;;;;27.08;15.48;;;;;;;;;;4918860;29;20016;-69
2023/01/10 05:14:10;;;;;;;27.73;16.10;;;;;;;;;;4915596;29;20040;-69
2023/01/10 05:16:35;;;;;;;29.25;17.48;;;;;;;;;;4909742;29;20442;-69
2023/01/10 05:19:01;;;;;;;35.25;20.35;;;;;;;;;;4910649;29;20047;-69
2023/01/10 05:21:27;;;;;;;28.00;16.42;;;;;;;;;;4898903;29;20123;-69
2023/01/10 05:23:52;;;;;;;30.50;15.93;;;;;;;;;;4915779;29;20040;-70
2023/01/10 05:26:21;;;;;;;27.13;15.68;;;;;;;;;;4896859;29;20467;-70
2023/01/10 05:28:47;;;;;;;24.45;13.77;;;;;;;;;;4913855;29;20047;-69
2023/01/10 05:31:15;;;;;;;23.73;13.93;;;;;;;;;;4913228;29;20036;-69
2023/01/10 05:33:49;;;;;;;25.30;15.60;;;;;;;;;;4915604;29;20038;-70
2023/01/10 05:36:15;;;;;;;;;;;;;;;;;;4915681;29;20059;-69
2023/01/10 05:38:41;;;;;;;26.27;14.25;;;;;;;;;;4915816;29;20463;-70
2023/01/10 05:41:07;;;;;;;27.17;17.05;;;;;;;;;;4915711;29;20157;-69
2023/01/10 05:43:32;;;;;;;35.80;20.73;;;;;;;;;;4915482;29;20075;-70
2023/01/10 05:45:58;;;;;;;29.95;17.95;;;;;;;;;;4914739;29;20115;-70
2023/01/10 05:48:24;;;;;;;28.02;16.80;;;;;;;;;;4915582;29;20059;-68
2023/01/10 05:50:50;;;;;;;26.67;16.63;;;;;;;;;;4915867;29;20131;-69
2023/01/10 05:53:17;;;;;;;25.48;15.23;;;;;;;;;;4915449;29;20036;-69
2023/01/10 05:55:43;;;;;;;25.13;14.85;;;;;;;;;;4914696;29;20103;-70
2023/01/10 05:58:11;;;;;;;28.48;17.40;;;;;;;;;;4915362;29;20583;-69
2023/01/10 06:00:39;;;;;;;35.13;21.15;;;;;;;;;;4916138;29;20123;-70
2023/01/10 06:03:04;;;;;;;34.42;19.40;;;;;;;;;;4915234;29;20036;-71
2023/01/10 06:05:30;;;;;;;29.98;18.15;;;;;;;;;;4914836;29;20111;-71
2023/01/10 06:07:56;;;;;;;29.02;18.20;;;;;;;;;;4898267;29;20036;-71
2023/01/10 06:10:21;;;;;;;30.15;18.60;;;;;;;;;;4912017;29;20127;-71
2023/01/10 06:12:48;;;;;;;32.35;18.13;;;;;;;;;;4913624;29;20111;-70
2023/01/10 06:15:14;;;;;;;32.80;19.52;;;;;;;;;;4914869;29;20075;-71
2023/01/10 06:17:40;;;;;;;31.00;19.13;;;;;;;;;;4913998;29;20044;-70
2023/01/10 06:20:06;;;;;;;33.60;21.50;;;;;;;;;;4896846;29;20039;-70
2023/01/10 06:22:32;;;;;;;30.92;19.23;;;;;;;;;;4911861;29;20115;-71
2023/01/10 06:24:58;;;;;;;33.58;20.05;;;;;;;;;;4907706;29;20127;-70
2023/01/10 06:27:24;;;;;;;31.48;18.40;;;;;;;;;;4915044;29;20062;-70
2023/01/10 06:29:49;;;;;;;30.50;18.63;;;;;;;;;;4913085;29;20443;-71
2023/01/10 06:32:15;;;;;;;31.20;18.42;;;;;;;;;;4912663;29;20048;-70
2023/01/10 06:34:40;;;;;;;30.27;18.00;;;;;;;;;;4890392;29;20107;-71
2023/01/10 06:37:07;;;;;;;26.98;17.27;;;;;;;;;;4917629;29;20500;-70
2023/01/10 06:39:32;;;;;;;26.65;16.75;;;;;;;;;;4917887;29;20100;-70
2023/01/10 06:41:58;;;;;;;31.83;19.70;;;;;;;;;;4917295;29;20040;-70
2023/01/10 06:44:24;;;;;;;28.77;17.35;;;;;;;;;;4888898;29;20032;-70
2023/01/10 06:46:49;;;;;;;29.50;18.80;;;;;;;;;;4884823;29;20072;-70
2023/01/10 06:49:15;;;;;;;28.75;16.92;;;;;;;;;;4917976;29;20024;-69
2023/01/10 06:51:40;;;;;;;28.05;16.70;;;;;;;;;;4912753;29;20068;-70
2023/01/10 06:54:06;;;;;;;23.70;14.93;;;;;;;;;;4904205;29;20292;-70
2023/01/10 06:56:32;;;;;;;26.00;16.48;;;;;;;;;;4915850;29;20040;-70
2023/01/10 06:58:57;;;;;;;24.05;15.65;;;;;;;;;;4911166;29;20102;-70
2023/01/10 07:01:24;;;;;;;23.02;13.30;;;;;;;;;;4889337;29;20040;-71
2023/01/10 07:03:49;;;;;;;23.17;14.40;;;;;;;;;;4913808;29;20039;-71
2023/01/10 07:06:15;;;;;;;24.67;13.90;;;;;;;;;;4913841;29;20044;-70
2023/01/10 07:08:44;;;;;;;23.90;14.07;;;;;;;;;;4906779;29;20032;-71
2023/01/10 07:11:12;;;;;;;23.27;13.80;;;;;;;;;;4913516;29;20055;-71
2023/01/10 07:13:38;;;;;;;21.73;14.20;;;;;;;;;;4893807;29;20024;-72
2023/01/10 07:16:10;;;;;;;23.52;14.02;;;;;;;;;;4918230;29;20036;-71
2023/01/10 07:18:37;;;;;;;27.00;15.40;;;;;;;;;;4909191;29;20043;-71
2023/01/10 07:21:03;;;;;;;25.38;16.77;;;;;;;;;;4912632;29;20032;-71
2023/01/10 07:23:30;;;;;;;25.38;15.60;;;;;;;;;;4914565;29;20202;-71
2023/01/10 07:26:06;;;;;;;26.50;16.88;;;;;;;;;;4912234;29;20029;-69
2023/01/10 07:28:35;;;;;;;25.35;16.33;;;;;;;;;;4914507;29;20044;-69
2023/01/10 07:31:03;;;;;;;23.63;14.73;;;;;;;;;;4909682;29;20028;-72
2023/01/10 07:33:30;;;;;;;23.65;13.95;;;;;;;;;;4920488;29;20035;-71
2023/01/10 07:35:56;;;;;;;22.55;14.07;;;;;;;;;;4920890;29;20031;-71
2023/01/10 07:38:21;;;;;;;22.83;13.70;;;;;;;;;;4900315;29;20055;-71
2023/01/10 07:40:47;;;;;;;20.50;12.13;;;;;;;;;;4917647;29;20107;-73
2023/01/10 07:43:13;;;;;;;22.90;12.23;;;;;;;;;;4918685;29;20064;-69
2023/01/10 07:45:39;;;;;;;18.60;12.05;;;;;;;;;;4917529;29;20459;-69
2023/01/10 07:48:05;;;;;;;16.77;10.70;;;;;;;;;;4898190;29;20040;-70
2023/01/10 07:50:35;;;;;;;16.60;10.35;;;;;;;;;;4911228;29;20031;-69
2023/01/10 07:53:03;;;;;;;17.88;10.27;;;;;;;;;;4911772;29;20039;-70
2023/01/10 07:55:29;;;;;;;15.05;10.15;;;;;;;;;;4921235;29;20027;-71
2023/01/10 07:57:55;;;;;;;14.32;9.93;;;;;;;;;;4916777;29;20451;-71
2023/01/10 08:00:21;;;;;;;17.88;10.48;;;;;;;;;;4914382;29;20032;-71
2023/01/10 08:02:51;;;;;;;14.57;9.70;;;;;;;;;;4898545;29;20032;-70
2023/01/10 08:05:17;;;;;;;17.20;10.30;;;;;;;;;;4916062;29;20036;-71
2023/01/10 08:07:43;;;;;;;15.70;10.18;;;;;;;;;;4915833;29;20126;-70
2023/01/10 08:10:10;;;;;;;16.08;10.15;;;;;;;;;;4915092;29;20608;-71
2023/01/10 08:12:36;;;;;;;18.17;10.10;;;;;;;;;;4909996;29;20110;-70
2023/01/10 08:15:01;;;;;;;15.40;9.52;;;;;;;;;;4911058;29;20126;-71
2023/01/10 08:17:27;;;;;;;16.08;9.82;;;;;;;;;;4891279;29;20487;-71
2023/01/10 08:19:53;;;;;;;14.32;9.45;;;;;;;;;;4916492;29;20490;-70
2023/01/10 08:22:18;;;;;;;12.15;8.95;;;;;;;;;;4916324;29;20032;-71
2023/01/10 08:24:44;;;;;;;15.93;10.18;;;;;;;;;;4921959;29;20497;-71
2023/01/10 08:27:10;;;;;;;13.50;9.50;;;;;;;;;;4916683;29;20397;-70
2023/01/10 08:29:35;;;;;;;17.50;9.07;;;;;;;;;;4916570;29;20047;-70
2023/01/10 08:32:01;;;;;;;15.45;9.50;;;;;;;;;;4916109;29;20035;-71
2023/01/10 08:34:27;;;;;;;36.13;19.25;;;;;;;;;;4898522;29;20123;-71
2023/01/10 08:36:53;;;;;;;25.02;15.05;;;;;;;;;;4910949;29;20111;-71
2023/01/10 08:39:25;;;;;;;18.98;11.80;;;;;;;;;;4912708;29;20044;-71
2023/01/10 08:41:51;;;;;;;19.42;13.15;;;;;;;;;;4906655;29;20377;-71
2023/01/10 08:44:17;;;;;;;24.30;15.13;;;;;;;;;;4913197;29;20034;-72
2023/01/10 08:46:43;;;;;;;20.33;13.70;;;;;;;;;;4912649;29;20032;-69
2023/01/10 08:49:09;;;;;;;21.35;13.32;;;;;;;;;;4909049;29;20035;-70
2023/01/10 08:51:35;;;;;;;22.48;14.50;;;;;;;;;;4916897;29;20032;-72
2023/01/10 08:54:01;;;;;;;18.17;11.88;;;;;;;;;;4919532;29;20035;-72
2023/01/10 08:56:26;;;;;;;23.77;14.88;;;;;;;;;;4919333;29;20102;-72
2023/01/10 08:58:52;;;;;;;26.08;15.45;;;;;;;;;;4896184;29;20024;-72
2023/01/10 09:01:18;;;;;;;25.63;14.88;;;;;;;;;;4913658;29;20080;-70
2023/01/10 09:03:43;;;;;;;24.20;13.45;;;;;;;;;;4934009;29;20024;-70
2023/01/10 09:06:10;;;;;;;21.65;12.55;;;;;;;;;;4932800;29;20042;-71
2023/01/10 09:08:35;;;;;;;18.02;11.30;;;;;;;;;;4933420;29;20027;-70
2023/01/10 09:11:03;;;;;;;18.25;12.30;;;;;;;;;;4921568;29;20028;-70
2023/01/10 09:13:29;;;;;;;19.13;11.80;;;;;;;;;;4913509;29;20031;-71
2023/01/10 09:15:55;;;;;;;22.88;13.95;;;;;;;;;;4913594;29;20143;-71
2023/01/10 09:18:21;;;;;;;15.95;10.90;;;;;;;;;;4917646;29;20038;-70
2023/01/10 09:20:49;;;;;;;14.68;10.25;;;;;;;;;;4914694;29;20107;-69
2023/01/10 09:23:18;;;;;;;19.25;11.98;;;;;;;;;;4915162;29;20039;-69
2023/01/10 09:25:52;;;;;;;20.02;12.93;;;;;;;;;;4914630;29;20047;-69
2023/01/10 09:28:19;;;;;;;19.63;12.90;;;;;;;;;;4929559;29;20063;-69
2023/01/10 09:30:46;;;;;;;18.63;11.68;;;;;;;;;;4933566;29;20169;-69
2023/01/10 09:33:13;;;;;;;14.85;10.43;;;;;;;;;;4916864;29;20060;-69
2023/01/10 09:35:40;;;;;;;15.10;9.75;;;;;;;;;;4887833;29;20453;-70
2023/01/10 09:38:10;;;;;;;14.88;9.57;;;;;;;;;;4899036;29;20044;-71
2023/01/10 09:41:09;;;;;;;13.52;9.32;;;;;;;;;;4878605;29;20438;-71
2023/01/10 09:44:04;;;;;;;12.77;8.60;;;;;;;;;;4888847;29;20044;-70
2023/01/10 09:46:57;;;;;;;13.68;8.80;;;;;;;;;;4891925;29;20044;-71
2023/01/10 09:49:44;;;;;;;13.97;9.67;;;;;;;;;;4913665;29;20056;-71
2023/01/10 09:52:25;;;;;;;12.30;8.48;;;;;;;;;;4914171;29;20172;-71
2023/01/10 09:54:54;;;;;;;12.35;8.30;;;;;;;;;;4913616;29;20343;-72
2023/01/10 09:57:22;;;;;;;11.68;8.40;;;;;;;;;;4921874;29;20046;-71
2023/01/10 09:59:50;;;;;;;15.55;10.48;;;;;;;;;;4915032;29;20035;-72
2023/01/10 10:02:25;;;;;;;15.43;10.90;;;;;;;;;;4915100;29;20043;-70
2023/01/10 10:05:12;;;;;;;12.95;9.00;;;;;;;;;;4913496;29;20052;-72
2023/01/10 10:07:38;;;;;;;14.73;9.82;;;;;;;;;;4914069;29;20075;-71
2023/01/10 10:10:13;;;;;;;15.60;10.32;;;;;;;;;;4913411;29;20031;-71
2023/01/10 10:13:12;;;;;;;15.70;9.85;;;;;;;;;;4913924;29;20071;-70
2023/01/10 10:15:38;;;;;;;15.05;9.75;;;;;;;;;;4871993;29;20072;-71
2023/01/10 10:18:21;;;;;;;20.88;9.95;;;;;;;;;;4873386;29;20057;-72
2023/01/10 10:20:56;;;;;;;14.63;7.32;;;;;;;;;;4873490;29;20045;-70
2023/01/10 10:23:58;;;;;;;10.93;5.68;;;;;;;;;;4859008;29;20053;-72
2023/01/10 10:26:34;;;;;;;12.23;6.47;;;;;;;;;;4873303;29;20144;-71
2023/01/10 10:29:05;;;;;;;22.02;6.82;;;;;;;;;;4874443;29;20543;-72
2023/01/10 10:31:52;;;;;;;14.68;7.47;;;;;;;;;;4873908;29;20049;-72
2023/01/10 10:34:26;;;;;;;13.73;6.55;;;;;;;;;;4863849;29;20045;-72
2023/01/10 10:37:00;;;;;;;18.05;8.10;;;;;;;;;;4876031;29;20174;-72
2023/01/10 10:39:36;;;;;;;20.17;7.43;;;;;;;;;;4877659;29;20048;-73
2023/01/10 10:42:03;;;;;;;17.92;6.78;;;;;;;;;;4870247;29;20082;-71
2023/01/10 10:44:43;;;;;;;15.38;7.13;;;;;;;;;;4869234;29;20404;-71
2023/01/10 10:47:14;;;;;;;16.05;7.03;;;;;;;;;;4863580;29;20053;-71
2023/01/10 10:49:53;;;;;;;11.57;5.78;;;;;;;;;;4865574;29;20037;-72
2023/01/10 10:52:25;;;;;;;21.05;6.45;;;;;;;;;;4892469;29;20047;-72
2023/01/10 10:54:51;;;;;;;16.52;4.78;;;;;;;;;;4932258;29;20174;-71
2023/01/10 10:57:20;;;;;;;19.15;5.15;;;;;;;;;;4921084;29;20051;-72
2023/01/10 10:59:47;;;;;;;24.80;5.40;;;;;;;;;;4912373;29;20044;-71
2023/01/10 11:02:21;;;;;;;16.23;5.40;;;;;;;;;;4913447;29;20039;-71
2023/01/10 11:04:49;;;;;;;22.35;5.78;;;;;;;;;;4911361;29;20040;-71
2023/01/10 11:07:17;;;;;;;10.02;4.32;;;;;;;;;;4896220;29;20140;-70
2023/01/10 11:09:53;;;;;;;18.63;5.47;;;;;;;;;;4912958;29;20046;-70
2023/01/10 11:12:23;;;;;;;31.48;6.63;;;;;;;;;;4912360;29;20252;-70
2023/01/10 11:18:37;;;;;;;21.15;7.55;;;;;;;;;;4903412;29;20147;-72
2023/01/10 11:21:07;;;;;;;17.15;5.22;;;;;;;;;;4894228;29;20060;-70
2023/01/10 11:23:51;;;;;;;20.08;5.47;;;;;;;;;;4924733;29;20043;-71
2023/01/10 11:26:25;;;;;;;10.25;4.43;;;;;;;;;;4932127;29;20498;-70
2023/01/10 11:29:02;;;;;;;29.58;6.30;;;;;;;;;;4916193;29;20051;-72
2023/01/10 11:31:29;;;;;;;13.55;4.63;;;;;;;;;;4903824;29;20505;-71
2023/01/10 11:33:56;;;;;;;17.65;5.05;;;;;;;;;;4908878;29;20084;-71
2023/01/10 11:36:22;;;;;;;13.68;4.70;;;;;;;;;;4907902;29;20173;-70
2023/01/10 11:39:02;;;;;;;8.48;4.55;;;;;;;;;;4916603;29;20047;-71
2023/01/10 11:41:33;;;;;;;13.52;5.72;;;;;;;;;;4911802;29;20047;-71
2023/01/10 11:44:28;;;;;;;22.38;6.90;;;;;;;;;;4902134;29;20044;-70
2023/01/10 11:53:42;;;;;;;11.18;6.25;;;;;;;;;;4994716;23;20052;-79
2023/01/10 11:56:21;;;;;;;15.75;7.18;;;;;;;;;;4895489;29;20398;-79
2023/01/10 11:58:48;;;;;;;22.52;6.68;;;;;;;;;;4888979;29;20116;-78
2023/01/10 12:01:58;;;;;;;21.40;7.10;;;;;;;;;;4902654;29;20124;-79
2023/01/10 12:04:26;;;;;;;15.27;6.35;;;;;;;;;;4849305;29;20050;-79
2023/01/10 12:06:57;;;;;;;28.15;7.22;;;;;;;;;;4882248;29;22679;-80
2023/01/10 12:09:56;;;;;;;21.30;7.45;;;;;;;;;;4772014;29;20127;-79
2023/01/10 12:12:34;;;;;;;22.10;7.45;;;;;;;;;;4545440;30;2082269;-79
2023/01/10 12:15:21;;;;;;;13.15;6.50;;;;;;;;;;4579779;31;20067;-82
2023/01/10 12:17:48;;;;;;;30.13;11.93;;;;;;;;;;4564529;31;20041;-81
2023/01/10 12:20:14;;;;;;;25.17;11.80;;;;;;;;;;4564557;31;20528;-80
2023/01/10 12:22:46;;;;;;;34.17;12.75;;;;;;;;;;4564227;31;20049;-78
2023/01/10 12:25:26;;;;;;;18.95;8.38;;;;;;;;;;4591210;31;20084;-81
2023/01/10 12:27:55;;;;;;;18.73;7.82;;;;;;;;;;4593856;31;20060;-79
2023/01/10 12:30:43;;;;;;;11.95;5.50;;;;;;;;;;4595705;31;20097;-79
2023/01/10 12:33:16;;;;;;;10.93;5.47;;;;;;;;;;4572531;31;20041;-80
2023/01/10 12:35:49;;;;;;;18.85;6.22;;;;;;;;;;4572127;31;20063;-82
2023/01/10 12:39:05;;;;;;;17.25;5.57;;;;;;;;;;4564340;31;20053;-81
2023/01/10 12:44:45;;;;;;;11.45;5.32;;;;;;;;;;4571268;31;20053;-79
2023/01/10 12:47:18;;;;;;;;;;;;;;;;;;4582285;31;20071;-78
2023/01/10 12:50:31;;;;;;;26.02;6.43;;;;;;;;;;4583727;31;20442;-80
2023/01/10 12:53:04;;;;;;;15.25;5.00;;;;;;;;;;4566846;31;20061;-80
2023/01/10 12:55:35;;;;;;;17.57;5.30;;;;;;;;;;4590805;31;20053;-79
2023/01/10 12:58:04;;;;;;;9.90;4.72;;;;;;;;;;4565289;31;20064;-81
2023/01/10 13:00:42;;;;;;;9.30;4.00;;;;;;;;;;4591363;31;20081;-81
2023/01/10 13:03:19;;;;;;;5.05;2.90;;;;;;;;;;4593615;31;20060;-84
2023/01/10 13:05:48;;;;;;;19.65;4.90;;;;;;;;;;4566586;31;20056;-83
2023/01/10 13:08:18;;;;;;;19.48;4.93;;;;;;;;;;4575809;31;20520;-83
2023/01/10 13:10:46;;;;;;;9.43;4.15;;;;;;;;;;4559794;31;20049;-82
2023/01/10 13:13:30;;;;;;;8.68;3.35;;;;;;;;;;4643792;30;20141;-81
2023/01/10 13:16:14;;;;;;;;;;;;;;;;;;4662703;30;20053;-80
2023/01/10 13:19:09;;;;;;;11.15;4.30;;;;;;;;;;4665027;30;19926;-80
2023/01/10 13:21:37;;;;;;;25.35;8.25;;;;;;;;;;4678545;30;20161;-81
2023/01/10 13:24:18;;;;;;;15.63;6.25;;;;;;;;;;4672244;30;20030;-80
2023/01/10 13:26:56;;;;;;;16.73;6.90;;;;;;;;;;4680511;30;20528;-80
2023/01/10 13:29:25;;;;;;;16.58;6.80;;;;;;;;;;4674988;30;20188;-81
2023/01/10 13:31:56;;;;;;;10.27;5.28;;;;;;;;;;4682071;30;20489;-81
2023/01/10 13:34:26;;;;;;;13.70;6.30;;;;;;;;;;4678379;30;20507;-80
2023/01/10 13:36:56;;;;;;;14.88;6.18;;;;;;;;;;4679248;30;20033;-81
2023/01/10 13:39:30;;;;;;;15.40;6.32;;;;;;;;;;4680403;30;20069;-80
2023/01/10 13:45:08;;;;;;;13.23;5.57;;;;;;;;;;4666950;30;20107;-79
2023/01/10 13:47:44;;;;;;;14.45;6.38;;;;;;;;;;4672123;30;20039;-79
2023/01/10 13:50:22;;;;;;;13.48;4.50;;;;;;;;;;4680000;30;20121;-80
2023/01/10 13:53:20;;;;;;;11.10;4.10;;;;;;;;;;4682034;30;20062;-81
2023/01/10 13:55:52;;;;;;;9.10;3.28;;;;;;;;;;4661860;30;20080;-81
2023/01/10 14:03:57;;;;;;;15.35;5.20;;;;;;;;;;4670526;30;20046;-82
2023/01/10 14:06:29;;;;;;;54.67;9.60;;;;;;;;;;4677215;30;20046;-81
2023/01/10 14:09:00;;;;;;;37.97;7.97;;;;;;;;;;4671124;30;20053;-81
2023/01/10 14:11:52;;;;;;;32.65;7.78;;;;;;;;;;4694110;30;20747;-79
2023/01/10 14:14:38;;;;;;;34.75;9.63;;;;;;;;;;4740723;30;20051;-81
2023/01/10 14:17:25;;;;;;;27.25;9.48;;;;;;;;;;4768666;30;20039;-80
2023/01/10 14:20:04;;;;;;;27.42;10.13;;;;;;;;;;4767433;30;20111;-79
2023/01/10 14:22:35;;;;;;;34.03;10.38;;;;;;;;;;4761822;30;20035;-81
2023/01/10 14:25:05;;;;;;;16.98;9.27;;;;;;;;;;4769942;30;20047;-84
2023/01/10 14:27:43;;;;;;;37.95;9.68;;;;;;;;;;4768370;30;20043;-82
2023/01/10 14:30:38;;;;;;;18.80;8.23;;;;;;;;;;4767956;30;20482;-82
2023/01/10 14:33:20;;;;;;;18.77;9.48;;;;;;;;;;4766717;30;20129;-81
2023/01/10 14:35:51;;;;;;;25.30;11.15;;;;;;;;;;4768226;30;20044;-82
2023/01/10 14:38:24;;;;;;;32.85;11.10;;;;;;;;;;4781797;30;20040;-82
2023/01/10 14:40:54;;;;;;;15.00;6.93;;;;;;;;;;4762870;30;20065;-81
2023/01/10 14:43:26;;;;;;;26.88;10.15;;;;;;;;;;4767099;30;20074;-82
2023/01/10 14:46:04;;;;;;;23.73;9.07;;;;;;;;;;4753298;30;20047;-81
2023/01/10 14:48:40;;;;;;;19.35;7.55;;;;;;;;;;4767424;30;20040;-82
2023/01/10 14:51:19;;;;;;;18.75;7.80;;;;;;;;;;4767322;30;20051;-82
2023/01/10 14:53:54;;;;;;;24.25;13.23;;;;;;;;;;4771871;30;20078;-82
2023/01/10 14:56:39;;;;;;;25.52;14.35;;;;;;;;;;4772912;30;20070;-83
2023/01/10 14:59:30;;;;;;;26.58;15.80;;;;;;;;;;4773134;30;20401;-81
2023/01/10 15:01:59;;;;;;;25.08;13.75;;;;;;;;;;4772715;30;20042;-82
2023/01/10 15:04:29;;;;;;;39.03;22.15;;;;;;;;;;4771650;30;20552;-83
2023/01/10 15:07:09;;;;;;;31.60;16.92;;;;;;;;;;4765184;30;20135;-81
2023/01/10 15:09:34;;;;;;;38.08;22.63;;;;;;;;;;4764131;30;20039;-81
2023/01/10 15:12:11;;;;;;;33.22;20.65;;;;;;;;;;4793695;29;20037;-82
2023/01/10 15:14:38;;;;;;;35.65;18.08;;;;;;;;;;4857756;29;20053;-84
2023/01/10 15:17:07;;;;;;;26.60;15.48;;;;;;;;;;4848209;29;20033;-82
2023/01/10 15:19:37;;;;;;;25.17;12.80;;;;;;;;;;4845881;29;20499;-82
2023/01/10 15:22:15;;;;;;;18.75;11.07;;;;;;;;;;4857574;29;20033;-82
2023/01/10 15:24:41;;;;;;;22.00;11.85;;;;;;;;;;4854474;29;20058;-82